Talmage, NE

11:14 PM CDT on October 19, 2019 (GMT -0500)
Cook | | Change Station
Active Advisory: Flood Warning

Elev 1106 ft 40.51 °N, 96.16 °W | Updated 4 seconds ago

Clear
Clear
50.5 °F
Feels Like 50.5 °F
N
0
Wind Variable Wind from North
Gusts 0.0 mph

Today
High -- | Low -- °F
--% Chance of Precip.
Yesterday
High -- | Low -- °F
Precip. -- in
Pressure 29.82 in
Visibility 10.0 miles
Clouds Clear
Dew Point 43 °F
Humidity 74%
Rainfall 0.09 in
Snow Depth Not available.
7:39 AM 6:38 PM
Waning Gibbous, 64% visible
METAR KAFK 200355Z AUTO 19004KT 10SM CLR 11/05 A2982 RMK AO2 T01110051
Pressure 29.82 in
Visibility 10.0 miles
Clouds Clear
Dew Point 43 °F
Humidity 74%
Rainfall 0.09 in
Snow Depth Not available.
7:39 AM 6:38 PM
Waning Gibbous, 64% visible
METAR KAFK 200355Z AUTO 19004KT 10SM CLR 11/05 A2982 RMK AO2 T01110051

Get Your Daily Forecast Email!

Thanks for signing up!

Be on the lookout for a verification email in your inbox.

You'll start receiving severe weather alerts in your inbox..

×

10-Day Weather Forecast

Almanac

Astronomy

Oct. 19, 2019 Rise Set
Actual Time
Civil Twilight
Nautical Twilight
Astronomical Twilight
Moon
Length of Visible Light
Length of Day
Tomorrow will be .
, % of the Moon is Illuminated

Today's Extremes

State Highs State Lows

Community

WunderPhotos

Category 6

Welcome to Category 6. This is the collective home for Weather Underground's featured writeups by Dr. Jeff Masters (right), Bob Henson (left), Chris Burt, and other regular contributors.

Nearby

Air Quality

  Air Quality AQ Index Pollutant
Not available.

Snow Depth

Station Depth Elevation

Earthquake Activity

City Distance Mag. Time & Date
Minimum magnitude displayed is 2.5.

Coastal Water Temperatures

Place Temperature

Stations

Nearby Weather Stations

Station Location Temp. Windchill Dew Point Humidity Wind Precip. Elev Updated Type
                   

Watches & Warnings

Flood Warning
Issued: 8:19 PM CDT Oct. 19, 2019 – National Weather Service

The Flood Warning continues for
the Missouri River at Nebraska City.
* At 8:00 PM Saturday the stage was 20.4 feet... or 2.4 feet above
flood stage.
* Flood stage is 18.0 feet.
* Minor flooding is occurring and minor flooding is forecast.
* Forecast... the river should slowly fall for the next 7 days but
remain above flood stage.


Lat... Lon 4078 9587 4078 9572 4048 9554 4048 9580
      4074 9590